Weather History for Fort Drum, NY

Change the Weather History Date:

Wednesday, February 20, 2013

  Actual Average Record
Temperature  
Mean Temperature 20 °F -  
Max Temperature 26 °F 28 °F 51 °F (2002)
Min Temperature 15 °F 10 °F 0 °F (2005)
Degree Days  
Heating Degree Days 44    
Moisture  
Dew Point 18 °F    
Average Humidity 83    
Maximum Humidity 100    
Minimum Humidity 54    
Precipitation  
Precipitation 0.00 in - - ()
Sea Level Pressure  
Sea Level Pressure 29.79 in    
Wind  
Wind Speed 15 mph (West)    
Max Wind Speed 24 mph    
Max Gust Speed 37 mph    
Visibility 7 miles    
Events Snow    
Averages and records for this station are not official NWS values.
T = Trace of Precipitation, MM = Missing Value Source: NWS Daily Summary

Daily Weather History Graph

Daily Weather History Graph

Search for Another Location

Airport:

Trip Planner

Search our weather history database for the weather conditions in past years. The results will help you decide how hot, cold, wet, or windy it might be!

Date:

Astronomy

Feb. 20, 2013 Rise Set
Actual Time 6:54 AM EST 5:39 PM EST
Civil Twilight 6:24 AM EST 6:08 PM EST
Nautical Twilight 5:51 AM EST 6:42 PM EST
Astronomical Twilight 5:17 AM EST 7:16 PM EST
Moon 12:52 PM EST (2/20) 3:19 AM EST (2/20)
Length of Visible Light 11h 44m
Length of Day
10h 45m
Waxing Gibbous, 76% of the Moon is Illuminated
Feb 20
Waxing Gibbous
Feb 25
Full
Mar 4
Last Quarter
Mar 11
New
Mar 19
First Quarter

Hourly Weather History & Observations

Time (EST) Temp. Windchill Dew Point Humidity Pressure Visibility Wind Dir Wind Speed Gust Speed Precip Events Conditions
12:11 AM 26.6 °F 14.7 °F 23.0 °F 86% 29.67 in 10.0 mi West 15.0 mph 28.8 mph N/A   Overcast
12:17 AM 26.6 °F 16.2 °F 23.0 °F 86% 29.68 in 10.0 mi West 11.5 mph 28.8 mph N/A   Overcast
12:19 AM 26.6 °F 13.4 °F 23.0 °F 86% 29.68 in 9.0 mi West 18.4 mph 26.5 mph N/A   Overcast
12:21 AM 26.6 °F 13.8 °F 23.0 °F 86% 29.68 in 8.0 mi West 17.3 mph 26.5 mph N/A Snow Light Snow
12:22 AM 26.6 °F 14.3 °F 23.0 °F 86% 29.68 in 8.0 mi West 16.1 mph 26.5 mph N/A Snow Light Snow
12:25 AM 26.6 °F 12.4 °F 23.0 °F 86% 29.67 in 5.0 mi West 21.9 mph 36.8 mph N/A Snow Light Snow
12:26 AM 26.6 °F 12.4 °F 23.0 °F 86% 29.67 in 4.0 mi West 21.9 mph 36.8 mph N/A Snow Light Snow
12:44 AM 26.6 °F 12.4 °F 23.0 °F 86% 29.67 in 10.0 mi West 21.9 mph 32.2 mph N/A   Overcast
12:45 AM 26.6 °F 12.4 °F 23.0 °F 86% 29.67 in 10.0 mi West 21.9 mph 32.2 mph N/A   Overcast
12:55 AM 26.4 °F 12.1 °F 23.0 °F 87% 29.67 in 10.0 mi WSW 21.9 mph 29.9 mph 0.00 in   Overcast
1:06 AM 26.6 °F 13.1 °F 23.0 °F 86% 29.67 in 5.0 mi WSW 19.6 mph 33.4 mph N/A Snow Light Snow
1:21 AM 26.6 °F 13.8 °F 23.0 °F 86% 29.68 in 7.0 mi West 17.3 mph 29.9 mph N/A Snow Light Snow
1:22 AM 26.6 °F 13.4 °F 23.0 °F 86% 29.68 in 5.0 mi WSW 18.4 mph 29.9 mph N/A Snow Light Snow
1:25 AM 26.6 °F 13.8 °F 23.0 °F 86% 29.68 in 2.5 mi WSW 17.3 mph 29.9 mph N/A Snow Light Snow
1:27 AM 26.6 °F 15.2 °F 23.0 °F 86% 29.68 in 2.0 mi West 13.8 mph 29.9 mph N/A Snow Light Snow
1:29 AM 26.6 °F 14.7 °F 24.8 °F 93% 29.68 in 1.8 mi West 15.0 mph 29.9 mph N/A Snow Light Snow
1:32 AM 26.6 °F 15.7 °F 24.8 °F 93% 29.68 in 2.0 mi West 12.7 mph 25.3 mph N/A Snow Light Snow
1:34 AM 26.6 °F 14.3 °F 24.8 °F 93% 29.68 in 2.5 mi West 16.1 mph 20.7 mph N/A Snow Light Snow
1:35 AM 26.6 °F 14.7 °F 24.8 °F 93% 29.68 in 3.0 mi WSW 15.0 mph 20.7 mph N/A Snow Light Snow
1:55 AM 26.2 °F 13.4 °F 24.3 °F 92% 29.68 in 2.5 mi WSW 17.3 mph 33.4 mph 0.00 in Snow Light Snow
1:57 AM 26.6 °F 14.7 °F 24.8 °F 93% 29.68 in 2.0 mi WSW 15.0 mph 33.4 mph N/A Snow Light Snow
2:01 AM 26.6 °F 14.7 °F 24.8 °F 93% 29.68 in 2.5 mi West 15.0 mph 33.4 mph N/A Snow Light Snow
2:03 AM 26.6 °F 14.3 °F 24.8 °F 93% 29.69 in 3.0 mi WSW 16.1 mph 29.9 mph N/A Snow Light Snow
2:15 AM 26.6 °F 15.7 °F 24.8 °F 93% 29.69 in 9.0 mi West 12.7 mph 23.0 mph N/A Snow Light Snow
2:20 AM 26.6 °F 16.2 °F 24.8 °F 93% 29.69 in 9.0 mi West 11.5 mph 23.0 mph N/A Snow Light Snow
2:35 AM 26.6 °F 14.7 °F 23.0 °F 86% 29.69 in 10.0 mi West 15.0 mph 26.5 mph N/A Snow Light Snow
2:36 AM 26.6 °F 14.7 °F 23.0 °F 86% 29.69 in 9.0 mi West 15.0 mph 26.5 mph N/A Snow Light Snow
2:39 AM 26.6 °F 14.3 °F 23.0 °F 86% 29.69 in 9.0 mi West 16.1 mph 23.0 mph N/A Snow Light Snow
2:45 AM 26.6 °F 15.7 °F 23.0 °F 86% 29.69 in 8.0 mi West 12.7 mph 23.0 mph N/A Snow Light Snow
2:47 AM 26.6 °F 16.2 °F 23.0 °F 86% 29.70 in 9.0 mi WSW 11.5 mph 23.0 mph N/A Snow Light Snow
2:51 AM 26.6 °F 15.2 °F 24.8 °F 93% 29.70 in 8.0 mi West 13.8 mph 19.6 mph N/A Snow Light Snow
2:52 AM 26.6 °F 15.2 °F 24.8 °F 93% 29.70 in 7.0 mi West 13.8 mph 20.7 mph N/A Snow Light Snow
2:55 AM 26.1 °F 15.0 °F 24.3 °F 93% 29.70 in 7.0 mi West 12.7 mph 20.7 mph 0.00 in Snow Light Snow
3:06 AM 26.6 °F 15.7 °F 23.0 °F 86% 29.70 in 8.0 mi West 12.7 mph 21.9 mph N/A Snow Light Snow
3:08 AM 26.6 °F 16.2 °F 23.0 °F 86% 29.70 in 10.0 mi West 11.5 mph 21.9 mph N/A Snow Light Snow
3:10 AM 26.6 °F 15.2 °F 23.0 °F 86% 29.70 in 10.0 mi West 13.8 mph 21.9 mph N/A   Overcast
3:12 AM 26.6 °F 14.7 °F 23.0 °F 86% 29.70 in 5.0 mi WSW 15.0 mph 19.6 mph N/A Snow Light Snow
3:15 AM 26.6 °F 14.3 °F 23.0 °F 86% 29.70 in 2.5 mi WSW 16.1 mph 21.9 mph N/A Snow Light Snow
3:18 AM 24.8 °F 13.4 °F 23.0 °F 93% 29.70 in 2.0 mi West 12.7 mph 21.9 mph N/A Snow Light Snow
3:19 AM 24.8 °F 13.4 °F 23.0 °F 93% 29.70 in 2.0 mi West 12.7 mph 21.9 mph N/A Snow Light Snow
3:21 AM 24.8 °F 12.9 °F 23.0 °F 93% 29.70 in 2.5 mi WSW 13.8 mph 21.9 mph N/A Snow Light Snow
3:22 AM 24.8 °F 12.9 °F 23.0 °F 93% 29.70 in 3.0 mi WSW 13.8 mph 21.9 mph N/A Snow Light Snow
3:28 AM 24.8 °F 14.0 °F 23.0 °F 93% 29.70 in 9.0 mi WSW 11.5 mph - N/A Snow Light Snow
3:32 AM 24.8 °F 14.0 °F 23.0 °F 93% 29.70 in 10.0 mi West 11.5 mph - N/A Snow Light Snow
3:40 AM 24.8 °F 12.4 °F 24.8 °F 100% 29.70 in 9.0 mi WSW 15.0 mph - N/A Snow Light Snow
3:42 AM 24.8 °F 12.9 °F 24.8 °F 100% 29.70 in 8.0 mi WSW 13.8 mph - N/A Snow Light Snow
3:44 AM 24.8 °F 12.9 °F 24.8 °F 100% 29.70 in 8.0 mi WSW 13.8 mph 20.7 mph N/A Snow Light Snow
3:45 AM 24.8 °F 12.4 °F 24.8 °F 100% 29.70 in 8.0 mi WSW 15.0 mph 23.0 mph N/A Snow Light Snow
3:46 AM 24.8 °F 12.4 °F 24.8 °F 100% 29.70 in 8.0 mi WSW 15.0 mph 23.0 mph N/A Snow Light Snow
3:47 AM 24.8 °F 12.9 °F 24.8 °F 100% 29.70 in 8.0 mi WSW 13.8 mph 23.0 mph N/A Snow Light Snow
3:48 AM 24.8 °F 12.9 °F 24.8 °F 100% 29.70 in 8.0 mi WSW 13.8 mph 23.0 mph N/A Snow Light Snow
3:49 AM 24.8 °F 12.9 °F 24.8 °F 100% 29.70 in 8.0 mi WSW 13.8 mph 23.0 mph N/A Snow Light Snow
3:50 AM 24.8 °F 12.9 °F 23.0 °F 93% 29.70 in 8.0 mi WSW 13.8 mph 23.0 mph N/A Snow Light Snow
3:54 AM 24.8 °F 14.6 °F 23.0 °F 93% 29.70 in 9.0 mi West 10.4 mph 23.0 mph N/A Snow Light Snow
3:55 AM 25.0 °F 13.6 °F 23.7 °F 95% 29.70 in 9.0 mi WSW 12.7 mph 23.0 mph 0.00 in Snow Light Snow
3:59 AM 24.8 °F 12.4 °F 23.0 °F 93% 29.70 in 10.0 mi WSW 15.0 mph 19.6 mph N/A Snow Light Snow
4:03 AM 24.8 °F 12.9 °F 23.0 °F 93% 29.70 in 10.0 mi WSW 13.8 mph 19.6 mph N/A Snow Light Snow
4:04 AM 24.8 °F 14.0 °F 23.0 °F 93% 29.70 in 10.0 mi WSW 11.5 mph 19.6 mph N/A Snow Light Snow
4:05 AM 24.8 °F 14.0 °F 23.0 °F 93% 29.70 in 10.0 mi WSW 11.5 mph 19.6 mph N/A   Overcast
4:07 AM 24.8 °F 14.6 °F 23.0 °F 93% 29.70 in 10.0 mi West 10.4 mph 19.6 mph N/A   Overcast
4:23 AM 24.8 °F 12.9 °F 23.0 °F 93% 29.70 in 10.0 mi WSW 13.8 mph 18.4 mph N/A   Overcast
4:30 AM 24.8 °F 15.3 °F 23.0 °F 93% 29.70 in 10.0 mi WSW 9.2 mph 18.4 mph N/A   Overcast
4:44 AM 24.8 °F 15.3 °F 23.0 °F 93% 29.71 in 10.0 mi West 9.2 mph 17.3 mph N/A Snow Light Snow
4:48 AM 24.8 °F 16.1 °F 23.0 °F 93% 29.71 in 10.0 mi West 8.1 mph 17.3 mph N/A Snow Light Snow
4:52 AM 24.8 °F 16.1 °F 23.0 °F 93% 29.71 in 10.0 mi WSW 8.1 mph 17.3 mph N/A   Overcast
4:54 AM 24.8 °F 15.3 °F 23.0 °F 93% 29.71 in 10.0 mi West 9.2 mph - N/A   Overcast
4:55 AM 24.6 °F 15.1 °F 22.1 °F 90% 29.71 in 10.0 mi WSW 9.2 mph - 0.00 in   Overcast
5:00 AM 24.8 °F 14.6 °F 21.2 °F 86% 29.71 in 10.0 mi West 10.4 mph - N/A   Overcast
5:02 AM 24.8 °F 14.6 °F 21.2 °F 86% 29.71 in 10.0 mi West 10.4 mph - N/A   Overcast
5:04 AM 24.8 °F 14.0 °F 21.2 °F 86% 29.71 in 10.0 mi West 11.5 mph - N/A   Overcast
5:16 AM 24.8 °F 14.6 °F 19.4 °F 80% 29.71 in 10.0 mi West 10.4 mph 19.6 mph N/A   Mostly Cloudy
5:30 AM 23.0 °F 10.6 °F 17.6 °F 80% 29.71 in 10.0 mi West 13.8 mph 19.6 mph N/A   Mostly Cloudy
5:35 AM 23.0 °F 13.9 °F 17.6 °F 80% 29.71 in 10.0 mi West 8.1 mph 18.4 mph N/A   Mostly Cloudy
5:55 AM 23.4 °F 14.3 °F 16.3 °F 75% 29.71 in 10.0 mi West 8.1 mph - 0.00 in   Partly Cloudy
6:08 AM 23.0 °F 12.4 °F 15.8 °F 74% 29.72 in 10.0 mi West 10.4 mph - N/A   Partly Cloudy
6:22 AM 23.0 °F 12.4 °F 17.6 °F 80% 29.72 in 10.0 mi West 10.4 mph 21.9 mph N/A   Clear
6:55 AM 22.3 °F 11.5 °F 16.0 °F 77% 29.73 in 10.0 mi West 10.4 mph - 0.00 in   Partly Cloudy
7:55 AM 22.1 °F 10.6 °F 15.4 °F 76% 29.75 in 10.0 mi West 11.5 mph 19.6 mph N/A   Clear
8:55 AM 22.8 °F 9.9 °F 13.3 °F 67% 29.75 in 10.0 mi West 15.0 mph 23.0 mph N/A   Clear
9:53 AM 23.0 °F 9.6 °F 12.2 °F 63% 29.75 in 10.0 mi West 16.1 mph 25.3 mph N/A   Light Freezing Rain
9:55 AM 23.4 °F 11.1 °F 11.8 °F 61% 29.75 in 10.0 mi West 13.8 mph 25.3 mph 0.00 in   Light Freezing Rain
9:56 AM 23.0 °F 9.6 °F 12.2 °F 63% 29.75 in 10.0 mi West 16.1 mph 25.3 mph N/A   Mostly Cloudy
10:43 AM 24.8 °F 11.5 °F 10.4 °F 54% 29.76 in 9.0 mi West 17.3 mph 33.4 mph N/A   Light Freezing Rain
10:52 AM 24.8 °F 11.9 °F 10.4 °F 54% 29.75 in 10.0 mi West 16.1 mph 26.5 mph N/A   Partly Cloudy
10:55 AM 24.3 °F 10.4 °F 10.4 °F 56% 29.75 in 10.0 mi West 18.4 mph 26.5 mph 0.00 in   Partly Cloudy
11:55 AM 22.8 °F 8.9 °F 10.4 °F 59% 29.76 in 10.0 mi West 17.3 mph 24.2 mph N/A   Clear
12:55 PM 25.0 °F 13.1 °F 11.8 °F 57% 29.78 in 10.0 mi West 13.8 mph 26.5 mph N/A   Mostly Cloudy
1:29 PM 23.0 °F 10.1 °F 12.2 °F 63% 29.78 in 10.0 mi West 15.0 mph 21.9 mph N/A Snow Light Snow
1:48 PM 23.0 °F 10.1 °F 10.4 °F 59% 29.78 in 10.0 mi West 15.0 mph 27.6 mph N/A   Overcast
1:55 PM 23.2 °F 10.8 °F 11.1 °F 60% 29.78 in 10.0 mi WSW 13.8 mph 24.2 mph 0.00 in   Overcast
2:16 PM 23.0 °F 9.2 °F 14.0 °F 68% 29.79 in 10.0 mi West 17.3 mph 26.5 mph N/A   Overcast
2:18 PM 23.0 °F 9.2 °F 14.0 °F 68% 29.79 in 10.0 mi West 17.3 mph 26.5 mph N/A   Overcast
2:19 PM 23.0 °F 8.7 °F 14.0 °F 68% 29.79 in 10.0 mi West 18.4 mph 25.3 mph N/A   Overcast
2:29 PM 23.0 °F 9.6 °F 12.2 °F 63% 29.79 in 10.0 mi West 16.1 mph 26.5 mph N/A   Overcast
2:30 PM 23.0 °F 9.2 °F 12.2 °F 63% 29.79 in 10.0 mi West 17.3 mph 26.5 mph N/A   Overcast
2:38 PM 23.0 °F 9.6 °F 14.0 °F 68% 29.80 in 10.0 mi West 16.1 mph 26.5 mph N/A   Overcast
2:39 PM 23.0 °F 9.2 °F 14.0 °F 68% 29.80 in 10.0 mi West 17.3 mph 26.5 mph N/A   Overcast
2:40 PM 23.0 °F 9.6 °F 14.0 °F 68% 29.80 in 10.0 mi West 16.1 mph 24.2 mph N/A Snow Light Snow
2:49 PM 23.0 °F 10.6 °F 14.0 °F 68% 29.80 in 10.0 mi West 13.8 mph 25.3 mph N/A Snow Light Snow
2:50 PM 23.0 °F 11.7 °F 14.0 °F 68% 29.80 in 10.0 mi West 11.5 mph 25.3 mph N/A Snow Light Snow
2:55 PM 22.5 °F 10.5 °F 14.2 °F 71% 29.80 in 8.0 mi West 12.7 mph 23.0 mph 0.00 in Snow Light Snow
3:55 PM 23.0 °F 9.6 °F 16.5 °F 76% 29.81 in 10.0 mi West 16.1 mph 23.0 mph 0.00 in Snow Light Snow
4:27 PM 23.0 °F 11.1 °F 14.0 °F 68% 29.83 in 10.0 mi West 12.7 mph 24.2 mph N/A   Overcast
4:44 PM 23.0 °F 8.7 °F 14.0 °F 68% 29.83 in 10.0 mi West 18.4 mph 28.8 mph N/A   Overcast
4:55 PM 22.8 °F 9.9 °F 15.1 °F 72% 29.83 in 10.0 mi West 15.0 mph 23.0 mph 0.00 in   Overcast
5:10 PM 23.0 °F 9.6 °F 15.8 °F 74% 29.83 in 10.0 mi WSW 16.1 mph 21.9 mph N/A   Overcast
5:53 PM 23.0 °F 9.2 °F 15.8 °F 74% 29.85 in 10.0 mi West 17.3 mph 23.0 mph N/A   Overcast
5:55 PM 23.0 °F 9.6 °F 15.3 °F 72% 29.85 in 10.0 mi West 16.1 mph 26.5 mph 0.00 in   Overcast
6:08 PM 23.0 °F 9.6 °F 15.8 °F 74% 29.85 in 10.0 mi West 16.1 mph 25.3 mph N/A   Overcast
6:11 PM 23.0 °F 9.2 °F 15.8 °F 74% 29.85 in 10.0 mi West 17.3 mph 28.8 mph N/A   Overcast
6:15 PM 23.0 °F 9.6 °F 15.8 °F 74% 29.85 in 10.0 mi West 16.1 mph 28.8 mph N/A   Overcast
6:16 PM 23.0 °F 9.6 °F 15.8 °F 74% 29.85 in 10.0 mi West 16.1 mph 28.8 mph N/A   Overcast
6:18 PM 23.0 °F 7.6 °F 15.8 °F 74% 29.85 in 10.0 mi West 21.9 mph 28.8 mph N/A   Overcast
6:20 PM 23.0 °F 10.1 °F 15.8 °F 74% 29.86 in 10.0 mi West 15.0 mph 28.8 mph N/A   Overcast
6:25 PM 23.0 °F 11.1 °F 15.8 °F 74% 29.86 in 10.0 mi WSW 12.7 mph 28.8 mph N/A   Overcast
6:26 PM 23.0 °F 10.6 °F 15.8 °F 74% 29.86 in 10.0 mi WSW 13.8 mph 28.8 mph N/A   Overcast
6:28 PM 23.0 °F 10.6 °F 15.8 °F 74% 29.86 in 10.0 mi WSW 13.8 mph 26.5 mph N/A   Overcast
6:39 PM 23.0 °F 8.3 °F 15.8 °F 74% 29.86 in 10.0 mi West 19.6 mph 28.8 mph N/A   Light Freezing Rain
6:48 PM 23.0 °F 9.6 °F 15.8 °F 74% 29.86 in 10.0 mi WSW 16.1 mph 24.2 mph N/A   Overcast
6:55 PM 22.5 °F 8.0 °F 15.4 °F 74% 29.87 in 10.0 mi West 18.4 mph 24.2 mph 0.00 in   Overcast
6:57 PM 23.0 °F 9.2 °F 15.8 °F 74% 29.87 in 10.0 mi West 17.3 mph 24.2 mph N/A   Overcast
6:58 PM 23.0 °F 9.2 °F 15.8 °F 74% 29.87 in 10.0 mi West 17.3 mph 24.2 mph N/A   Overcast
7:26 PM 21.2 °F 6.0 °F 15.8 °F 80% 29.88 in 10.0 mi West 19.6 mph 27.6 mph N/A   Light Freezing Rain
7:47 PM 21.2 °F 6.4 °F 14.0 °F 74% 29.88 in 10.0 mi West 18.4 mph 29.9 mph N/A Snow Light Snow
7:55 PM 20.5 °F 4.6 °F 14.0 °F 76% 29.88 in 9.0 mi West 20.7 mph 29.9 mph 0.00 in Snow Light Snow
7:59 PM 21.2 °F 5.6 °F 14.0 °F 74% 29.88 in 9.0 mi West 20.7 mph 28.8 mph N/A Snow Light Snow
8:01 PM 21.2 °F 4.5 °F 14.0 °F 74% 29.88 in 10.0 mi West 24.2 mph 32.2 mph N/A Snow Light Snow
8:03 PM 19.4 °F 4.1 °F 14.0 °F 80% 29.89 in 10.0 mi West 18.4 mph 32.2 mph N/A Snow Light Snow
8:04 PM 19.4 °F 3.2 °F 14.0 °F 80% 29.88 in 10.0 mi West 20.7 mph 32.2 mph N/A Snow Light Snow
8:12 PM 19.4 °F 5.0 °F 12.2 °F 74% 29.89 in 10.0 mi West 16.1 mph 32.2 mph N/A   Overcast
8:26 PM 19.4 °F 5.0 °F 12.2 °F 74% 29.90 in 10.0 mi West 16.1 mph 28.8 mph N/A   Overcast
8:42 PM 19.4 °F 3.6 °F 12.2 °F 74% 29.91 in 10.0 mi West 19.6 mph 26.5 mph N/A Snow Light Snow
8:53 PM 19.4 °F 5.0 °F 12.2 °F 74% 29.91 in 7.0 mi West 16.1 mph 27.6 mph N/A Snow Light Snow
8:54 PM 19.4 °F 4.5 °F 12.2 °F 74% 29.92 in 6.0 mi West 17.3 mph 27.6 mph N/A Snow Light Snow
8:55 PM 18.7 °F 3.1 °F 12.0 °F 75% 29.92 in 6.0 mi West 18.4 mph 27.6 mph 0.00 in Snow Light Snow
9:04 PM 17.6 °F 1.3 °F 12.2 °F 79% 29.92 in 2.5 mi West 19.6 mph 32.2 mph N/A Snow Light Snow
9:06 PM 17.6 °F 2.2 °F 12.2 °F 79% 29.92 in 2.0 mi West 17.3 mph 32.2 mph N/A Snow Light Snow
9:08 PM 17.6 °F 0.9 °F 12.2 °F 79% 29.92 in 1.8 mi West 20.7 mph 32.2 mph N/A Snow Light Snow
9:10 PM 17.6 °F 2.2 °F 12.2 °F 79% 29.92 in 1.5 mi West 17.3 mph 32.2 mph N/A Snow Light Snow
9:12 PM 17.6 °F 0.9 °F 12.2 °F 79% 29.92 in 1.2 mi West 20.7 mph 32.2 mph N/A Snow Light Snow
9:14 PM 17.6 °F 2.2 °F 12.2 °F 79% 29.92 in 1.2 mi West 17.3 mph 32.2 mph N/A Snow Light Snow
9:16 PM 17.6 °F 2.7 °F 12.2 °F 79% 29.92 in 1.2 mi West 16.1 mph 32.2 mph N/A Snow Light Snow
9:22 PM 17.6 °F 2.7 °F 12.2 °F 79% 29.93 in 1.5 mi West 16.1 mph 32.2 mph N/A Snow Light Snow
9:27 PM 17.6 °F 2.2 °F 12.2 °F 79% 29.93 in 1.5 mi West 17.3 mph 32.2 mph N/A Snow Light Snow
9:31 PM 17.6 °F 3.2 °F 12.2 °F 79% 29.93 in 1.8 mi West 15.0 mph 28.8 mph N/A Snow Light Snow
9:37 PM 17.6 °F 3.7 °F 12.2 °F 79% 29.93 in 2.0 mi West 13.8 mph 28.8 mph N/A Snow Light Snow
9:41 PM 17.6 °F 3.2 °F 12.2 °F 79% 29.93 in 1.8 mi West 15.0 mph 25.3 mph N/A Snow Light Snow
9:44 PM 17.6 °F 3.7 °F 12.2 °F 79% 29.93 in 1.5 mi West 13.8 mph 21.9 mph N/A Snow Light Snow
9:45 PM 17.6 °F 4.3 °F 12.2 °F 79% 29.93 in 1.2 mi West 12.7 mph 20.7 mph N/A Snow Light Snow
9:49 PM 15.8 °F 2.7 °F 14.0 °F 93% 29.93 in 1.0 mi West 11.5 mph 20.7 mph N/A Snow Light Snow
9:50 PM 15.8 °F 3.4 °F 14.0 °F 93% 29.93 in 1.0 mi West 10.4 mph 20.7 mph N/A Snow Light Snow
9:53 PM 15.8 °F 0.3 °F 14.0 °F 93% 29.93 in 1.0 mi West 16.1 mph 24.2 mph N/A Snow Light Snow
9:55 PM 16.5 °F 3.0 °F 14.0 °F 90% 29.93 in 1.0 mi West 12.7 mph 24.2 mph 0.00 in Snow Light Snow
9:59 PM 15.8 °F 0.3 °F 14.0 °F 93% 29.93 in 1.0 mi West 16.1 mph 24.2 mph N/A Snow Light Snow
10:01 PM 15.8 °F 1.4 °F 14.0 °F 93% 29.93 in 1.2 mi West 13.8 mph 24.2 mph N/A Snow Light Snow
10:07 PM 15.8 °F 1.4 °F 14.0 °F 93% 29.93 in 1.5 mi West 13.8 mph 24.2 mph N/A Snow Light Snow
10:08 PM 15.8 °F 2.1 °F 14.0 °F 93% 29.93 in 1.5 mi West 12.7 mph 24.2 mph N/A Snow Light Snow
10:10 PM 15.8 °F -0.2 °F 14.0 °F 93% 29.93 in 1.2 mi West 17.3 mph 25.3 mph N/A Snow Light Snow
10:18 PM 15.8 °F 0.3 °F 14.0 °F 93% 29.93 in 1.2 mi West 16.1 mph 25.3 mph N/A Snow Light Snow
10:24 PM 15.8 °F -0.2 °F 14.0 °F 93% 29.93 in 1.2 mi West 17.3 mph 24.2 mph N/A Snow Light Snow
10:25 PM 15.8 °F 0.3 °F 14.0 °F 93% 29.93 in 1.2 mi West 16.1 mph 24.2 mph N/A Snow Light Snow
10:31 PM 15.8 °F 0.3 °F 14.0 °F 93% 29.93 in 1.2 mi West 16.1 mph 21.9 mph N/A Snow Light Snow
10:32 PM 15.8 °F 0.3 °F 14.0 °F 93% 29.93 in 1.5 mi West 16.1 mph 21.9 mph N/A Snow Light Snow
10:35 PM 15.8 °F 2.7 °F 14.0 °F 93% 29.93 in 1.5 mi West 11.5 mph 21.9 mph N/A Snow Light Snow
10:44 PM 15.8 °F 0.9 °F 14.0 °F 93% 29.93 in 1.8 mi West 15.0 mph 24.2 mph N/A Snow Light Snow
10:46 PM 15.8 °F 0.3 °F 14.0 °F 93% 29.93 in 2.0 mi West 16.1 mph 24.2 mph N/A Snow Light Snow
10:52 PM 15.8 °F 0.9 °F 14.0 °F 93% 29.93 in 2.5 mi West 15.0 mph 24.2 mph N/A Snow Light Snow
10:55 PM 16.2 °F 0.3 °F 14.0 °F 91% 29.93 in 3.0 mi West 17.3 mph 23.0 mph 0.00 in Snow Light Snow
10:58 PM 15.8 °F 1.4 °F 14.0 °F 93% 29.93 in 3.0 mi West 13.8 mph 21.9 mph N/A Snow Light Snow
11:06 PM 15.8 °F 0.9 °F 14.0 °F 93% 29.93 in 4.0 mi West 15.0 mph 23.0 mph N/A Snow Light Snow
11:22 PM 15.8 °F 2.1 °F 14.0 °F 93% 29.93 in 5.0 mi West 12.7 mph 19.6 mph N/A Snow Light Snow
11:55 PM 15.6 °F 2.5 °F 13.1 °F 90% 29.94 in 3.0 mi West 11.5 mph 20.7 mph 0.00 in Snow Light Snow
11:58 PM 15.8 °F 2.1 °F 12.2 °F 86% 29.94 in 3.0 mi West 12.7 mph 20.7 mph N/A Snow Light Snow